createdAt,value
2022-08-18T11:41:25.712Z,309.38
2022-08-18T11:42:25.658Z,331.88
2022-08-18T11:43:24.627Z,337.50
2022-08-18T11:44:24.607Z,348.75
2022-08-18T11:45:24.972Z,348.75
2022-08-18T11:46:30.090Z,343.12
2022-08-18T11:47:28.029Z,331.88
2022-08-18T11:48:31.695Z,320.62
2022-08-18T11:49:26.388Z,309.38
2022-08-18T11:50:24.528Z,303.75
2022-08-18T11:53:25.498Z,315.00
2022-08-18T11:54:24.989Z,320.62
2022-08-18T11:55:25.087Z,331.88
2022-08-18T11:56:30.618Z,348.75
2022-08-18T11:57:25.444Z,371.25
2022-08-18T11:58:24.451Z,399.38
2022-08-18T11:59:34.866Z,438.75
2022-08-18T12:00:25.398Z,461.25
2022-08-18T12:01:24.399Z,483.75
2022-08-18T12:02:24.379Z,506.25
2022-08-18T12:03:24.370Z,506.25
2022-08-18T12:04:24.347Z,556.88
2022-08-18T12:05:24.338Z,540.00
2022-08-18T12:06:26.773Z,562.50
2022-08-18T12:07:24.309Z,528.75
2022-08-18T12:08:54.626Z,540.00
2022-08-18T12:10:26.513Z,478.12
2022-08-18T12:12:28.255Z,444.38
2022-08-18T12:13:24.242Z,455.62
2022-08-18T12:14:31.435Z,466.88
2022-08-18T12:15:25.708Z,500.62
2022-08-18T12:16:24.190Z,1276.88
2022-08-18T12:17:24.180Z,2874.38
2022-08-18T12:18:28.493Z,2874.38
2022-08-18T12:19:24.612Z,2874.38
2022-08-18T12:20:24.142Z,2874.38
2022-08-18T12:21:24.130Z,2874.38
2022-08-18T12:22:24.110Z,2874.38
2022-08-18T12:23:24.111Z,2874.38
2022-08-18T12:24:26.242Z,2874.38
2022-08-18T12:25:25.853Z,2874.38
2022-08-18T12:27:25.057Z,843.75
2022-08-18T12:28:28.439Z,691.88
2022-08-18T12:29:28.101Z,517.50
2022-08-18T12:30:25.202Z,455.62
2022-08-18T12:31:29.116Z,416.25
2022-08-18T12:32:46.968Z,393.75
2022-08-18T12:33:25.732Z,371.25
2022-08-18T12:34:26.566Z,348.75
2022-08-18T12:36:24.933Z,303.75
2022-08-18T12:37:57.478Z,286.88
2022-08-18T12:38:24.914Z,281.25
2022-08-18T12:39:23.904Z,270.00
2022-08-18T12:40:23.884Z,258.75
2022-08-18T12:41:24.160Z,253.12
2022-08-18T12:42:23.863Z,264.38
2022-08-18T12:43:23.929Z,258.75
2022-08-18T12:44:27.118Z,270.00
2022-08-18T12:45:24.753Z,275.62
2022-08-18T12:47:24.802Z,371.25
2022-08-18T12:48:24.796Z,309.38
2022-08-18T12:49:23.774Z,309.38
2022-08-18T12:50:31.802Z,303.75
2022-08-18T12:51:30.471Z,315.00
2022-08-18T12:52:24.744Z,320.62
2022-08-18T12:53:30.369Z,315.00
2022-08-18T12:54:25.087Z,309.38
2022-08-18T12:55:23.706Z,309.38
2022-08-18T12:56:24.868Z,320.62
2022-08-18T12:57:33.105Z,337.50
2022-08-18T12:58:24.665Z,348.75
2022-08-18T12:59:24.347Z,348.75
2022-08-18T13:00:29.022Z,343.12
2022-08-18T13:01:24.673Z,348.75
2022-08-18T13:02:23.605Z,337.50
2022-08-18T13:03:23.619Z,337.50
2022-08-18T13:04:26.813Z,337.50
2022-08-18T13:05:26.436Z,343.12
2022-08-18T13:06:24.556Z,360.00
2022-08-18T13:07:23.547Z,382.50
2022-08-18T13:08:30.188Z,393.75
2022-08-18T13:09:42.968Z,433.12
2022-08-18T13:10:42.850Z,466.88
2022-08-18T13:11:25.124Z,466.88
2022-08-18T13:12:23.998Z,410.62
2022-08-18T13:13:25.041Z,376.88
2022-08-18T13:14:24.447Z,371.25
2022-08-18T13:15:23.439Z,376.88
2022-08-18T13:16:30.666Z,393.75
2022-08-18T13:17:32.157Z,410.62
2022-08-18T13:18:28.892Z,455.62
2022-08-18T13:19:23.391Z,500.62
2022-08-18T13:20:23.379Z,590.62
2022-08-18T13:21:23.371Z,804.38
2022-08-18T13:22:23.354Z,686.25
2022-08-18T13:23:25.288Z,652.50
2022-08-18T13:24:23.328Z,652.50
2022-08-18T13:25:33.315Z,663.75
2022-08-18T13:26:24.300Z,658.12
2022-08-18T13:27:23.583Z,652.50
2022-08-18T13:28:23.282Z,652.50
2022-08-18T13:29:24.277Z,646.88
2022-08-18T13:30:31.132Z,646.88
2022-08-18T13:31:24.230Z,641.25
2022-08-18T13:32:23.229Z,646.88
2022-08-18T13:33:55.966Z,691.88
2022-08-18T13:34:24.346Z,798.75
2022-08-18T13:35:24.242Z,2874.38
2022-08-18T13:36:23.172Z,2874.38
2022-08-18T13:37:23.151Z,2874.38
2022-08-18T13:38:27.160Z,798.75
2022-08-18T13:39:24.188Z,950.62
2022-08-18T13:40:23.175Z,720.00
2022-08-18T13:42:29.384Z,607.50
2022-08-18T13:43:24.082Z,585.00
2022-08-18T13:44:25.909Z,568.12
2022-08-18T13:45:25.662Z,573.75
2022-08-18T13:46:24.267Z,540.00
2022-08-18T13:47:24.031Z,511.88
2022-08-18T13:48:23.715Z,466.88
2022-08-18T13:49:23.902Z,399.38
2022-08-18T13:50:29.741Z,343.12
2022-08-18T13:51:23.989Z,309.38
2022-08-18T13:52:34.176Z,292.50
2022-08-18T13:53:24.660Z,281.25
2022-08-18T13:54:30.823Z,270.00
2022-08-18T13:55:23.934Z,264.38
2022-08-18T13:56:22.916Z,258.75
2022-08-18T13:57:23.906Z,247.50
2022-08-18T13:58:22.895Z,236.25
2022-08-18T13:59:22.895Z,236.25
2022-08-18T14:00:29.668Z,230.62
2022-08-18T14:01:45.317Z,225.00
2022-08-18T14:02:26.823Z,219.38
2022-08-18T14:03:30.970Z,219.38
2022-08-18T14:04:27.892Z,213.75
2022-08-18T14:05:36.529Z,202.50
2022-08-18T14:06:24.162Z,191.25
2022-08-18T14:07:27.415Z,180.00
2022-08-18T14:08:23.769Z,174.38
2022-08-18T14:09:35.831Z,168.75
2022-08-18T14:10:23.736Z,163.12
2022-08-18T14:11:22.727Z,157.50
2022-08-18T14:12:28.254Z,151.88
2022-08-18T14:13:24.738Z,146.25
2022-08-18T14:14:22.865Z,140.62
2022-08-18T14:15:22.675Z,140.62
2022-08-18T14:16:22.706Z,140.62
2022-08-18T14:17:22.909Z,140.62
2022-08-18T14:18:22.642Z,146.25
2022-08-18T14:19:23.637Z,146.25
2022-08-18T14:20:27.239Z,151.88
2022-08-18T14:21:23.610Z,157.50
2022-08-18T14:22:22.589Z,163.12
2022-08-18T14:23:25.958Z,168.75
2022-08-18T14:24:24.958Z,174.38
2022-08-18T14:25:22.900Z,185.62
2022-08-18T14:26:22.536Z,196.88
2022-08-18T14:27:22.563Z,213.75
2022-08-18T14:28:24.540Z,258.75
2022-08-18T14:29:45.790Z,331.88
2022-08-18T14:30:23.478Z,354.38
2022-08-18T14:31:22.961Z,635.62
2022-08-18T14:32:29.543Z,1417.50
2022-08-18T14:33:50.954Z,489.38
2022-08-18T14:34:28.520Z,466.88
2022-08-18T14:35:34.305Z,461.25
2022-08-18T14:36:29.575Z,438.75
2022-08-18T14:37:23.389Z,421.88
2022-08-18T14:38:22.379Z,410.62
2022-08-18T14:39:22.369Z,405.00
2022-08-18T14:40:22.421Z,450.00
2022-08-18T14:41:27.147Z,433.12
2022-08-18T14:42:41.380Z,433.12
2022-08-18T14:43:25.058Z,416.25
2022-08-18T14:44:23.699Z,388.12
2022-08-18T14:45:27.996Z,365.62
2022-08-18T14:46:23.365Z,354.38
2022-08-18T14:47:24.310Z,348.75
2022-08-18T14:48:22.227Z,348.75
2022-08-18T14:49:28.294Z,343.12
2022-08-18T14:50:23.197Z,343.12
2022-08-18T14:51:23.439Z,343.12
2022-08-18T14:52:23.178Z,348.75
2022-08-18T14:53:22.167Z,360.00
2022-08-18T14:54:22.348Z,388.12
2022-08-18T14:55:22.147Z,551.25
2022-08-18T14:56:22.126Z,495.00
2022-08-18T14:57:22.122Z,478.12
2022-08-18T14:58:22.099Z,483.75
2022-08-18T14:59:22.108Z,601.88
2022-08-18T15:00:22.712Z,427.50
2022-08-18T15:01:22.105Z,433.12
2022-08-18T15:02:22.047Z,433.12
2022-08-18T15:03:22.042Z,444.38
2022-08-18T15:04:23.049Z,596.25
2022-08-18T15:05:24.529Z,421.88
2022-08-18T15:06:26.965Z,405.00
2022-08-18T15:07:24.132Z,399.38
2022-08-18T15:09:21.981Z,427.50
2022-08-18T15:10:23.575Z,590.62
2022-08-18T15:11:23.946Z,1012.50
2022-08-18T15:12:21.923Z,596.25
2022-08-18T15:13:21.909Z,601.88
2022-08-18T15:14:21.889Z,883.12
2022-08-18T15:15:22.972Z,793.12
2022-08-18T15:16:21.867Z,483.75
2022-08-18T15:17:22.858Z,489.38
2022-08-18T15:18:22.690Z,590.62
2022-08-18T15:19:59.486Z,630.00
2022-08-18T15:20:28.902Z,596.25
2022-08-18T15:21:35.391Z,720.00
2022-08-18T15:22:22.791Z,995.62
2022-08-18T15:23:24.646Z,579.38
2022-08-18T15:24:21.770Z,517.50
2022-08-18T15:25:24.190Z,511.88
2022-08-18T15:26:21.743Z,545.62
2022-08-18T15:27:42.693Z,517.50
2022-08-18T15:28:23.744Z,495.00
2022-08-18T15:29:22.623Z,523.12
2022-08-18T15:30:22.704Z,624.38
2022-08-18T15:32:22.666Z,2874.38
2022-08-18T15:33:23.590Z,1434.38
2022-08-18T15:34:21.646Z,2874.38
2022-08-18T15:35:22.648Z,2874.38
2022-08-18T15:36:28.772Z,2874.38
2022-08-18T15:37:24.337Z,2874.38
2022-08-18T15:38:21.597Z,2874.38
2022-08-18T15:39:21.595Z,1428.75
2022-08-18T15:40:31.064Z,1361.25
2022-08-18T15:41:22.568Z,1395.00
2022-08-18T15:42:21.542Z,1400.62
2022-08-18T15:43:21.540Z,1383.75
2022-08-18T15:44:22.530Z,1288.12
2022-08-18T15:45:21.530Z,1411.88
2022-08-18T15:46:22.501Z,1372.50
2022-08-18T15:47:21.492Z,1333.12
2022-08-18T15:48:21.475Z,1147.50
2022-08-18T15:49:22.935Z,1141.88
2022-08-18T15:50:25.323Z,1035.00
2022-08-18T15:51:21.443Z,1237.50
2022-08-18T15:52:21.425Z,1220.62
2022-08-18T15:53:21.417Z,1170.00
2022-08-18T15:54:21.404Z,1271.25
2022-08-18T15:55:21.406Z,1209.38
2022-08-18T15:56:21.387Z,1265.62
2022-08-18T15:57:39.151Z,1260.00
2022-08-18T15:58:26.933Z,1186.88
2022-08-18T15:59:22.347Z,1203.75
2022-08-18T16:00:22.350Z,1186.88
2022-08-18T16:01:30.174Z,1164.38
2022-08-18T16:02:22.338Z,1158.75
2022-08-18T16:03:21.301Z,1170.00
2022-08-18T16:04:21.280Z,1175.62
2022-08-18T16:05:21.293Z,1057.50
2022-08-18T16:06:21.260Z,995.62
2022-08-18T16:07:39.777Z,939.38
2022-08-18T16:08:22.234Z,1012.50
2022-08-18T16:09:21.235Z,1091.25
2022-08-18T16:10:21.224Z,1068.75
2022-08-18T16:11:28.899Z,1068.75
2022-08-18T16:12:22.182Z,1102.50
2022-08-18T16:13:21.175Z,1102.50
2022-08-18T16:14:21.175Z,1074.38
2022-08-18T16:15:21.781Z,1125.00
2022-08-18T16:16:29.347Z,1119.38
2022-08-18T16:17:29.931Z,1153.12
2022-08-18T16:18:22.115Z,1164.38
2022-08-18T16:19:21.115Z,1181.25
2022-08-18T16:20:21.106Z,1170.00
2022-08-18T16:21:21.085Z,1147.50
2022-08-18T16:22:21.793Z,1113.75
2022-08-18T16:23:21.058Z,1113.75
2022-08-18T16:24:21.119Z,1108.12
2022-08-18T16:25:21.049Z,1085.62
2022-08-18T16:26:21.030Z,1051.88
2022-08-18T16:27:21.009Z,1001.25
2022-08-18T16:28:20.997Z,1001.25
2022-08-18T16:29:21.988Z,1006.88
2022-08-18T16:30:20.987Z,967.50
2022-08-18T16:31:20.980Z,973.12
2022-08-18T16:32:20.949Z,961.88
2022-08-18T16:33:20.941Z,978.75
2022-08-18T16:34:20.921Z,984.38
2022-08-18T16:35:20.940Z,973.12
2022-08-18T16:36:20.910Z,945.00
2022-08-18T16:37:20.892Z,933.75
2022-08-18T16:38:20.881Z,894.38
2022-08-18T16:39:20.862Z,871.88
2022-08-18T16:40:20.852Z,787.50
2022-08-18T16:41:20.852Z,894.38
2022-08-18T16:42:20.831Z,855.00
2022-08-18T16:43:20.822Z,776.25
2022-08-18T16:44:20.803Z,225.00
2022-08-18T16:45:27.918Z,219.38
2022-08-18T16:46:20.777Z,219.38
2022-08-18T16:47:20.767Z,545.62
2022-08-18T16:48:20.785Z,748.12
2022-08-18T16:49:20.747Z,781.88
2022-08-18T16:50:20.728Z,748.12
2022-08-18T16:51:20.738Z,742.50
2022-08-18T16:52:20.708Z,765.00
2022-08-18T16:53:20.698Z,495.00
2022-08-18T16:54:20.679Z,652.50
2022-08-18T16:55:20.670Z,742.50
2022-08-18T16:56:20.669Z,742.50
2022-08-18T16:57:20.650Z,703.12
2022-08-18T16:58:21.631Z,703.12
2022-08-18T16:59:20.652Z,697.50
2022-08-18T17:00:20.610Z,691.88
2022-08-18T17:01:20.636Z,703.12
2022-08-18T17:02:20.645Z,675.00
2022-08-18T17:03:20.571Z,663.75
2022-08-18T17:04:20.988Z,641.25
2022-08-18T17:05:20.551Z,630.00
2022-08-18T17:06:20.542Z,618.75
2022-08-18T17:07:20.522Z,596.25
2022-08-18T17:08:20.521Z,601.88
2022-08-18T17:09:20.501Z,590.62
2022-08-18T17:10:22.953Z,585.00
2022-08-18T17:11:21.483Z,585.00
2022-08-18T17:12:20.463Z,579.38
2022-08-18T17:13:20.443Z,551.25
2022-08-18T17:14:20.454Z,556.88
2022-08-18T17:15:20.424Z,562.50
2022-08-18T17:16:20.424Z,562.50
2022-08-18T17:17:20.427Z,540.00
2022-08-18T17:18:20.388Z,528.75
2022-08-18T17:19:20.377Z,517.50
2022-08-18T17:20:20.354Z,511.88
2022-08-18T17:21:20.432Z,478.12
2022-08-18T17:22:20.328Z,444.38
2022-08-18T17:23:20.325Z,444.38
2022-08-18T17:24:31.749Z,450.00
2022-08-18T17:25:21.296Z,433.12
2022-08-18T17:26:20.286Z,427.50
2022-08-18T17:27:27.116Z,421.88
2022-08-18T17:28:23.861Z,416.25
2022-08-18T17:29:21.256Z,405.00
2022-08-18T17:30:20.227Z,382.50
2022-08-18T17:31:20.238Z,360.00
2022-08-18T17:32:20.196Z,337.50
2022-08-18T17:33:20.187Z,264.38
2022-08-18T17:34:20.176Z,196.88
2022-08-18T17:35:20.168Z,174.38
2022-08-18T17:36:20.157Z,168.75
2022-08-18T17:37:20.149Z,157.50
2022-08-18T17:38:20.126Z,151.88
2022-08-18T17:39:20.119Z,135.00
2022-08-18T17:40:20.102Z,129.38
2022-08-18T17:41:20.089Z,129.38
2022-08-18T17:42:20.080Z,129.38
2022-08-18T17:43:20.069Z,123.75
2022-08-18T17:44:20.049Z,118.12
2022-08-18T17:45:21.771Z,118.12
2022-08-18T17:46:20.029Z,112.50
2022-08-18T17:47:20.029Z,112.50
2022-08-18T17:48:20.000Z,112.50
2022-08-18T17:49:19.991Z,106.88
2022-08-18T17:50:26.955Z,106.88
2022-08-18T17:51:20.978Z,101.25
2022-08-18T17:52:19.969Z,101.25
2022-08-18T17:53:19.933Z,101.25
2022-08-18T17:54:19.921Z,95.62
2022-08-18T17:55:20.230Z,95.62
2022-08-18T17:56:19.902Z,90.00
2022-08-18T17:57:19.891Z,90.00
2022-08-18T17:58:19.871Z,84.38
2022-08-18T17:59:45.415Z,84.38
2022-08-18T18:00:20.852Z,78.75
2022-08-18T18:01:19.866Z,78.75
2022-08-18T18:02:29.697Z,73.12
2022-08-18T18:03:20.811Z,73.12
2022-08-18T18:04:19.806Z,73.12
2022-08-18T18:05:19.793Z,73.12
2022-08-18T18:06:19.792Z,67.50
2022-08-18T18:07:19.773Z,67.50
2022-08-18T18:08:19.752Z,67.50
2022-08-18T18:09:19.743Z,61.88
2022-08-18T18:10:19.734Z,61.88
2022-08-18T18:11:19.704Z,61.88
2022-08-18T18:12:19.703Z,56.25
2022-08-18T18:13:19.685Z,56.25
2022-08-18T18:14:19.663Z,56.25
2022-08-18T18:15:19.663Z,56.25
2022-08-18T18:16:19.651Z,50.62
2022-08-18T18:17:19.642Z,50.62
2022-08-18T18:18:19.663Z,45.00
2022-08-18T18:19:19.606Z,45.00
2022-08-18T18:20:19.595Z,45.00
2022-08-18T18:21:19.626Z,39.38
2022-08-18T18:22:19.597Z,39.38
2022-08-18T18:23:19.553Z,39.38
2022-08-18T18:24:24.170Z,39.38
2022-08-18T18:25:19.556Z,33.75
2022-08-18T18:26:19.513Z,33.75
2022-08-18T18:27:19.576Z,33.75
2022-08-18T18:28:19.495Z,33.75
2022-08-18T18:29:19.518Z,28.12
2022-08-18T18:30:27.613Z,28.12
2022-08-18T18:31:20.506Z,28.12
2022-08-18T18:32:19.445Z,28.12
2022-08-18T18:33:19.415Z,28.12
2022-08-18T18:34:23.599Z,22.50
2022-08-18T18:35:21.524Z,22.50
2022-08-18T18:36:19.417Z,22.50
2022-08-18T18:37:19.387Z,22.50
2022-08-18T18:38:19.446Z,16.88
2022-08-18T18:39:19.341Z,16.88
2022-08-18T18:40:19.326Z,16.88
2022-08-18T18:41:19.316Z,16.88
2022-08-18T18:42:19.316Z,16.88
2022-08-18T18:43:19.285Z,16.88
2022-08-18T18:44:19.295Z,11.25
2022-08-18T18:45:19.257Z,11.25
2022-08-18T18:46:19.518Z,11.25
2022-08-18T18:47:19.247Z,11.25
2022-08-18T18:48:51.089Z,11.25
2022-08-18T18:49:20.209Z,11.25
2022-08-18T18:50:19.197Z,11.25
2022-08-18T18:51:19.178Z,5.62
2022-08-18T18:52:20.186Z,5.62
2022-08-18T18:53:19.155Z,5.62
2022-08-18T18:54:19.150Z,5.62
2022-08-18T18:55:19.126Z,5.62
2022-08-18T18:56:19.122Z,5.62
2022-08-18T18:57:19.108Z,0.00
2022-08-18T18:58:19.089Z,0.00
2022-08-18T18:59:19.073Z,0.00
2022-08-18T19:00:20.604Z,0.00
2022-08-18T19:01:19.086Z,0.00
2022-08-18T19:02:34.764Z,0.00
2022-08-18T19:03:20.019Z,0.00
2022-08-18T19:04:19.012Z,0.00
2022-08-18T19:05:18.996Z,0.00
2022-08-18T19:06:18.989Z,0.00
2022-08-18T19:07:21.087Z,0.00
2022-08-18T19:08:18.980Z,0.00
2022-08-18T19:09:18.946Z,0.00
2022-08-18T19:10:18.938Z,0.00
2022-08-18T19:11:18.921Z,0.00
2022-08-18T19:12:18.911Z,0.00
2022-08-18T19:13:32.326Z,0.00
2022-08-18T19:14:19.879Z,0.00
2022-08-18T19:15:18.859Z,0.00
2022-08-18T19:16:23.320Z,0.00
2022-08-18T19:17:19.839Z,0.00
2022-08-18T19:18:18.839Z,0.00
2022-08-18T19:19:37.020Z,0.00
2022-08-18T19:20:19.808Z,0.00
2022-08-18T19:22:03.382Z,0.00
2022-08-18T19:22:19.777Z,0.00
2022-08-18T19:23:30.885Z,0.00
2022-08-18T19:24:19.750Z,0.00
2022-08-18T19:25:18.737Z,0.00
2022-08-18T19:26:18.729Z,0.00
2022-08-18T19:27:23.198Z,0.00
2022-08-18T19:28:19.699Z,0.00
2022-08-18T19:29:18.687Z,0.00
2022-08-18T19:30:18.670Z,0.00
2022-08-18T19:31:18.662Z,0.00
2022-08-18T19:32:18.669Z,0.00
2022-08-18T19:33:25.807Z,0.00
2022-08-18T19:34:19.621Z,0.00
2022-08-18T19:35:19.552Z,0.00
2022-08-18T19:36:19.569Z,0.00
2022-08-18T19:37:26.743Z,0.00
2022-08-18T19:38:19.581Z,0.00
2022-08-18T19:39:18.717Z,0.00
2022-08-18T19:40:18.540Z,0.00
2022-08-18T19:41:20.149Z,0.00
2022-08-18T19:42:18.521Z,0.00
2022-08-18T19:43:18.510Z,0.00
2022-08-18T19:44:18.501Z,0.00
2022-08-18T19:45:18.470Z,0.00
2022-08-18T19:46:18.466Z,0.00
2022-08-18T19:47:18.451Z,0.00
2022-08-18T19:48:18.638Z,0.00
2022-08-18T19:49:18.423Z,0.00
2022-08-18T19:50:18.409Z,0.00
2022-08-18T19:51:18.399Z,0.00
2022-08-18T19:52:45.721Z,0.00
2022-08-18T19:53:19.409Z,0.00
2022-08-18T19:54:18.350Z,0.00
2022-08-18T19:55:18.348Z,0.00
2022-08-18T19:56:21.670Z,0.00
2022-08-18T19:57:18.320Z,0.00
2022-08-18T19:58:18.320Z,0.00
2022-08-18T19:59:19.467Z,0.00
2022-08-18T20:00:18.272Z,0.00
2022-08-18T20:01:21.289Z,0.00
2022-08-18T20:02:18.248Z,0.00
2022-08-18T20:03:18.384Z,0.00
2022-08-18T20:04:18.229Z,0.00
2022-08-18T20:05:18.211Z,0.00
2022-08-18T20:06:34.433Z,0.00
2022-08-18T20:07:19.193Z,0.00
2022-08-18T20:08:18.201Z,0.00
2022-08-18T20:09:18.160Z,0.00
2022-08-18T20:10:18.140Z,0.00
2022-08-18T20:11:18.144Z,0.00
2022-08-18T20:12:18.111Z,0.00
2022-08-18T20:13:18.149Z,0.00
2022-08-18T20:14:18.116Z,0.00
2022-08-18T20:15:18.081Z,0.00
2022-08-18T20:16:18.063Z,0.00
2022-08-18T20:17:18.050Z,0.00
2022-08-18T20:18:18.041Z,0.00
2022-08-18T20:19:18.022Z,0.00
2022-08-18T20:20:18.011Z,0.00
2022-08-18T20:21:18.012Z,0.00
2022-08-18T20:22:21.769Z,0.00
2022-08-18T20:23:18.981Z,0.00
2022-08-18T20:24:17.951Z,0.00
2022-08-18T20:25:17.940Z,0.00
2022-08-18T20:26:17.930Z,0.00
2022-08-18T20:27:17.919Z,0.00
2022-08-18T20:28:17.911Z,0.00
2022-08-18T20:29:17.891Z,0.00
2022-08-18T20:30:17.870Z,0.00
2022-08-18T20:31:17.862Z,0.00
2022-08-18T20:32:17.842Z,0.00
2022-08-18T20:33:17.857Z,0.00
2022-08-18T20:34:17.823Z,0.00
2022-08-18T20:35:17.811Z,0.00
2022-08-18T20:36:17.790Z,0.00
2022-08-18T20:37:17.782Z,0.00
2022-08-18T20:38:17.781Z,0.00
2022-08-18T20:39:17.761Z,0.00
2022-08-18T20:40:17.741Z,0.00
2022-08-18T20:41:17.740Z,0.00
2022-08-18T20:42:17.730Z,0.00
2022-08-18T20:43:17.721Z,0.00
2022-08-18T20:44:21.939Z,0.00
2022-08-18T20:45:18.681Z,0.00
2022-08-18T20:46:17.670Z,0.00
2022-08-18T20:47:17.670Z,0.00
2022-08-18T20:48:17.649Z,0.00
2022-08-18T20:49:17.630Z,0.00
2022-08-18T20:50:17.612Z,0.00
2022-08-18T20:51:17.611Z,0.00
2022-08-18T20:52:17.581Z,0.00
2022-08-18T20:53:18.590Z,0.00
2022-08-18T20:54:17.559Z,0.00
2022-08-18T20:55:17.550Z,0.00
2022-08-18T20:56:32.467Z,0.00
2022-08-18T20:57:18.531Z,0.00
2022-08-18T20:58:17.511Z,0.00
2022-08-18T20:59:17.521Z,0.00
